createdAt,value
2022-08-26T00:02:04.888Z,3.53
2022-08-26T00:04:31.907Z,3.70
2022-08-26T00:06:58.193Z,3.65
2022-08-26T00:09:25.278Z,3.90
2022-08-26T00:11:52.013Z,4.10
2022-08-26T00:14:18.281Z,3.63
2022-08-26T00:16:47.897Z,4.45
2022-08-26T00:21:41.220Z,3.97
2022-08-26T00:24:07.485Z,3.97
2022-08-26T00:26:34.772Z,3.92
2022-08-26T00:29:01.025Z,3.80
2022-08-26T00:31:27.342Z,3.85
2022-08-26T00:33:53.631Z,3.83
2022-08-26T00:36:20.595Z,3.45
2022-08-26T00:38:47.908Z,3.42
2022-08-26T00:41:14.315Z,3.90
2022-08-26T00:43:46.435Z,3.17
2022-08-26T00:46:16.087Z,3.15
2022-08-26T00:48:43.876Z,3.50
2022-08-26T00:51:11.223Z,3.30
2022-08-26T00:53:41.744Z,2.85
2022-08-26T00:56:34.348Z,3.10
2022-08-26T00:59:03.115Z,3.33
2022-08-26T01:01:31.157Z,2.95
2022-08-26T01:03:58.874Z,2.92
2022-08-26T01:06:27.168Z,2.50
2022-08-26T01:08:54.172Z,2.53
2022-08-26T01:11:20.799Z,2.60
2022-08-26T01:13:47.530Z,2.85
2022-08-26T01:16:15.779Z,2.30
2022-08-26T01:18:43.256Z,2.40
2022-08-26T01:21:28.268Z,2.20
2022-08-26T01:23:57.438Z,2.40
2022-08-26T01:26:29.832Z,2.15
2022-08-26T01:28:57.146Z,1.75
2022-08-26T01:31:25.352Z,2.10
2022-08-26T01:34:10.862Z,1.98
2022-08-26T01:36:38.223Z,1.77
2022-08-26T01:39:05.920Z,1.88
2022-08-26T01:41:34.400Z,2.00
2022-08-26T01:44:01.135Z,2.10
2022-08-26T01:46:29.288Z,1.77
2022-08-26T01:48:56.681Z,1.80
2022-08-26T01:51:24.479Z,1.60
2022-08-26T01:53:50.793Z,2.20
2022-08-26T01:56:17.392Z,1.80
2022-08-26T01:58:50.936Z,1.60
2022-08-26T02:01:18.583Z,2.10
2022-08-26T02:04:09.877Z,1.85
2022-08-26T02:06:37.752Z,2.00
2022-08-26T02:09:04.875Z,2.85
2022-08-26T02:11:31.164Z,1.75
2022-08-26T02:14:02.023Z,1.80
2022-08-26T02:16:33.193Z,1.83
2022-08-26T02:19:00.454Z,2.10
2022-08-26T02:21:26.736Z,1.40
2022-08-26T02:23:53.508Z,1.55
2022-08-26T02:26:23.679Z,2.13
2022-08-26T02:29:04.836Z,2.35
2022-08-26T02:31:31.333Z,1.48
2022-08-26T02:34:08.835Z,1.13
2022-08-26T02:36:37.792Z,1.50
2022-08-26T02:39:06.444Z,1.30
2022-08-26T02:41:33.103Z,2.08
2022-08-26T02:43:59.790Z,1.40
2022-08-26T02:46:27.682Z,1.60
2022-08-26T02:48:54.751Z,1.88
2022-08-26T02:51:21.065Z,1.45
2022-08-26T02:53:48.406Z,1.48
2022-08-26T02:56:15.207Z,1.42
2022-08-26T02:58:41.527Z,1.25
2022-08-26T03:01:08.073Z,1.10
2022-08-26T03:03:34.381Z,1.30
2022-08-26T03:06:01.121Z,1.40
2022-08-26T03:08:27.411Z,1.60
2022-08-26T03:10:53.676Z,1.30
2022-08-26T03:13:19.926Z,1.33
2022-08-26T03:15:47.639Z,1.48
2022-08-26T03:18:14.234Z,1.38
2022-08-26T03:20:40.501Z,1.05
2022-08-26T03:23:07.623Z,1.63
2022-08-26T03:25:35.463Z,1.65
2022-08-26T03:28:01.784Z,1.25
2022-08-26T03:30:44.990Z,1.52
2022-08-26T03:33:12.573Z,1.40
2022-08-26T03:35:40.621Z,1.50
2022-08-26T03:38:08.297Z,1.30
2022-08-26T03:40:36.531Z,1.30
2022-08-26T03:43:03.888Z,1.50
2022-08-26T03:45:30.307Z,1.25
2022-08-26T03:47:57.808Z,1.42
2022-08-26T03:50:24.837Z,1.60
2022-08-26T03:52:53.287Z,1.38
2022-08-26T03:55:23.744Z,1.27
2022-08-26T03:57:50.231Z,1.25
2022-08-26T04:00:18.502Z,1.30
2022-08-26T04:02:46.285Z,1.10
2022-08-26T04:05:13.940Z,1.17
2022-08-26T04:07:40.911Z,1.48
2022-08-26T04:10:07.759Z,1.08
2022-08-26T04:12:37.186Z,1.30
2022-08-26T04:15:05.013Z,1.05
2022-08-26T04:17:31.337Z,1.20
2022-08-26T04:19:58.348Z,1.27
2022-08-26T04:22:25.088Z,1.00
2022-08-26T04:24:51.648Z,1.30
2022-08-26T04:27:17.914Z,1.13
2022-08-26T04:29:46.119Z,1.25
2022-08-26T04:32:14.083Z,1.40
2022-08-26T04:34:40.406Z,1.00
2022-08-26T04:37:06.738Z,1.30
2022-08-26T04:39:33.425Z,1.13
2022-08-26T04:41:59.920Z,0.90
2022-08-26T04:44:29.143Z,1.40
2022-08-26T04:46:55.601Z,1.00
2022-08-26T04:49:22.573Z,1.13
2022-08-26T04:51:48.884Z,1.65
2022-08-26T04:54:16.393Z,1.10
2022-08-26T04:56:44.088Z,1.30
2022-08-26T04:59:14.940Z,1.00
2022-08-26T05:01:44.762Z,0.85
2022-08-26T05:04:11.410Z,1.00
2022-08-26T05:06:38.458Z,1.10
2022-08-26T05:09:05.199Z,1.20
2022-08-26T05:11:33.215Z,1.50
2022-08-26T05:14:02.237Z,1.13
2022-08-26T05:16:29.199Z,1.20
2022-08-26T05:18:55.944Z,1.10
2022-08-26T05:21:23.931Z,1.25
2022-08-26T05:23:54.896Z,1.10
2022-08-26T05:26:25.112Z,1.42
2022-08-26T05:28:54.706Z,1.30
2022-08-26T05:31:23.402Z,1.10
2022-08-26T05:33:49.986Z,1.15
2022-08-26T05:36:18.613Z,1.27
2022-08-26T05:38:45.195Z,1.15
2022-08-26T05:41:16.697Z,1.00
2022-08-26T05:43:43.159Z,1.33
2022-08-26T05:46:09.499Z,1.30
2022-08-26T05:48:35.902Z,1.10
2022-08-26T05:51:03.981Z,1.40
2022-08-26T05:53:30.635Z,1.40
2022-08-26T05:55:59.072Z,1.20
2022-08-26T05:58:26.931Z,1.20
2022-08-26T06:00:57.354Z,1.02
2022-08-26T06:05:49.894Z,1.15
2022-08-26T06:08:16.440Z,1.15
2022-08-26T06:10:50.992Z,1.38
2022-08-26T06:13:19.859Z,1.00
2022-08-26T06:15:47.833Z,1.25
2022-08-26T06:18:14.955Z,1.40
2022-08-26T06:20:44.080Z,3.50
2022-08-26T06:23:42.980Z,2.28
2022-08-26T06:26:10.934Z,1.40
2022-08-26T06:28:37.485Z,1.30
2022-08-26T06:31:03.914Z,1.30
2022-08-26T06:33:31.161Z,1.25
2022-08-26T06:35:57.552Z,1.10
2022-08-26T06:38:25.266Z,1.00
2022-08-26T06:40:52.833Z,1.10
2022-08-26T06:43:22.497Z,1.35
2022-08-26T06:45:49.992Z,1.20
2022-08-26T06:48:18.733Z,1.20
2022-08-26T06:50:45.383Z,1.50
2022-08-26T06:53:13.371Z,0.98
2022-08-26T06:55:41.345Z,1.40
2022-08-26T06:58:09.423Z,1.23
2022-08-26T07:00:36.520Z,1.10
2022-08-26T07:03:05.397Z,1.20
2022-08-26T07:05:32.870Z,1.05
2022-08-26T07:07:59.477Z,1.20
2022-08-26T07:10:26.654Z,0.77
2022-08-26T07:12:53.520Z,0.90
2022-08-26T07:15:20.346Z,1.02
2022-08-26T07:17:53.501Z,1.23
2022-08-26T07:20:20.482Z,0.90
2022-08-26T07:22:46.935Z,0.82
2022-08-26T07:25:13.209Z,1.10
2022-08-26T07:27:39.514Z,0.95
2022-08-26T07:30:06.411Z,1.48
2022-08-26T07:32:32.700Z,1.02
2022-08-26T07:34:59.081Z,1.13
2022-08-26T07:37:25.379Z,0.88
2022-08-26T07:39:51.723Z,0.70
2022-08-26T07:42:19.782Z,0.90
2022-08-26T07:44:46.046Z,1.00
2022-08-26T07:47:25.157Z,0.90
2022-08-26T07:49:53.132Z,1.35
2022-08-26T07:52:25.352Z,1.08
2022-08-26T07:54:52.819Z,0.95
2022-08-26T07:57:19.205Z,0.80
2022-08-26T07:59:45.464Z,0.90
2022-08-26T08:02:12.181Z,0.80
2022-08-26T08:04:38.474Z,0.93
2022-08-26T08:07:04.918Z,1.27
2022-08-26T08:09:36.851Z,0.90
2022-08-26T08:12:06.983Z,1.30
2022-08-26T08:14:36.349Z,0.98
2022-08-26T08:17:03.590Z,1.05
2022-08-26T08:19:36.778Z,1.20
2022-08-26T08:22:16.969Z,1.20
2022-08-26T08:24:43.974Z,1.25
2022-08-26T08:27:10.666Z,1.00
2022-08-26T08:29:37.399Z,0.93
2022-08-26T08:32:04.923Z,0.88
2022-08-26T08:34:31.584Z,0.95
2022-08-26T08:36:58.085Z,1.35
2022-08-26T08:39:25.195Z,1.23
2022-08-26T08:41:56.509Z,1.42
2022-08-26T08:47:02.954Z,1.17
2022-08-26T08:49:29.953Z,0.98
2022-08-26T08:51:59.242Z,0.70
2022-08-26T08:54:26.814Z,0.80
2022-08-26T08:56:57.376Z,0.90
2022-08-26T08:59:27.192Z,1.15
2022-08-26T09:01:59.749Z,1.17
2022-08-26T09:04:46.131Z,1.23
2022-08-26T09:07:17.651Z,0.77
2022-08-26T09:09:46.022Z,1.42
2022-08-26T09:12:20.384Z,1.67
2022-08-26T09:14:59.973Z,1.10
2022-08-26T09:17:45.793Z,0.70
2022-08-26T09:20:12.035Z,0.85
2022-08-26T09:22:39.429Z,0.73
2022-08-26T09:25:12.062Z,0.70
2022-08-26T09:27:47.751Z,1.08
2022-08-26T09:30:28.201Z,1.38
2022-08-26T09:33:02.041Z,1.35
2022-08-26T09:35:31.550Z,1.00
2022-08-26T09:37:58.335Z,0.77
2022-08-26T09:40:24.792Z,1.55
2022-08-26T09:43:07.625Z,0.98
2022-08-26T09:48:01.203Z,0.77
2022-08-26T09:50:29.165Z,1.00
2022-08-26T09:53:14.441Z,1.00
2022-08-26T09:55:41.996Z,0.70
2022-08-26T09:58:12.285Z,0.90
2022-08-26T10:03:12.597Z,1.00
2022-08-26T10:05:43.683Z,0.80
2022-08-26T10:08:16.068Z,1.10
2022-08-26T10:10:45.123Z,0.65
2022-08-26T10:13:23.356Z,1.20
2022-08-26T10:16:00.420Z,1.10
2022-08-26T10:18:35.402Z,1.35
2022-08-26T10:21:07.767Z,0.63
2022-08-26T10:26:13.222Z,0.88
2022-08-26T10:28:45.780Z,0.98
2022-08-26T10:31:29.016Z,0.82
2022-08-26T10:34:00.102Z,0.95
2022-08-26T10:37:10.609Z,0.82
2022-08-26T10:39:49.494Z,0.68
2022-08-26T10:42:33.054Z,0.70
2022-08-26T10:45:04.003Z,0.68
2022-08-26T10:47:51.873Z,0.57
2022-08-26T10:50:19.255Z,1.00
2022-08-26T10:53:01.956Z,1.50
2022-08-26T10:55:47.191Z,0.90
2022-08-26T10:58:41.736Z,1.33
2022-08-26T11:01:35.736Z,0.60
2022-08-26T11:04:07.213Z,0.73
2022-08-26T11:06:33.524Z,0.70
2022-08-26T11:09:04.690Z,0.68
2022-08-26T11:11:34.802Z,0.80
2022-08-26T11:14:02.305Z,0.90
2022-08-26T11:16:47.854Z,0.70
2022-08-26T11:19:59.292Z,0.70
2022-08-26T11:22:34.738Z,0.80
2022-08-26T11:25:04.380Z,0.70
2022-08-26T11:27:37.615Z,0.93
2022-08-26T11:30:13.670Z,0.65
2022-08-26T11:32:40.029Z,0.65
2022-08-26T11:35:29.336Z,0.70
2022-08-26T11:38:04.320Z,0.90
2022-08-26T11:40:32.555Z,0.80
2022-08-26T11:43:06.833Z,0.90
2022-08-26T11:45:44.112Z,0.70
2022-08-26T11:48:29.578Z,0.75
2022-08-26T11:50:57.728Z,0.60
2022-08-26T11:53:25.569Z,0.63
2022-08-26T11:55:53.749Z,0.60
2022-08-26T11:58:21.228Z,0.65
2022-08-26T12:00:51.112Z,0.70
2022-08-26T12:03:23.004Z,0.93
2022-08-26T12:05:50.246Z,0.70
2022-08-26T12:08:19.165Z,0.80
2022-08-26T12:10:45.519Z,0.70
2022-08-26T12:13:22.784Z,0.70
2022-08-26T12:15:56.303Z,0.60
2022-08-26T12:18:33.209Z,0.77
2022-08-26T12:21:00.952Z,0.70
2022-08-26T12:23:36.457Z,0.60
2022-08-26T12:26:05.989Z,0.70
2022-08-26T12:28:33.077Z,0.50
2022-08-26T12:31:03.739Z,0.90
2022-08-26T12:33:31.737Z,0.77
2022-08-26T12:35:59.431Z,0.77
2022-08-26T12:38:26.567Z,0.70
2022-08-26T12:40:52.902Z,0.65
2022-08-26T12:43:38.698Z,0.60
2022-08-26T12:46:06.643Z,0.80
2022-08-26T12:48:35.788Z,0.98
2022-08-26T12:51:02.976Z,0.60
2022-08-26T12:53:30.859Z,1.00
2022-08-26T12:55:58.787Z,0.77
2022-08-26T12:58:30.026Z,1.13
2022-08-26T13:01:02.333Z,1.45
2022-08-26T13:03:30.342Z,1.00
2022-08-26T13:06:08.812Z,1.00
2022-08-26T13:08:42.940Z,0.70
2022-08-26T13:11:11.953Z,0.70
2022-08-26T13:13:38.582Z,0.82
2022-08-26T13:16:06.950Z,0.70
2022-08-26T13:18:33.223Z,0.77
2022-08-26T13:20:59.500Z,0.80
2022-08-26T13:23:25.810Z,0.60
2022-08-26T13:25:52.079Z,0.77
2022-08-26T13:28:18.333Z,1.08
2022-08-26T13:30:46.092Z,0.65
2022-08-26T13:33:12.592Z,2.35
2022-08-26T13:35:40.929Z,0.73
2022-08-26T13:38:14.492Z,0.75
2022-08-26T13:40:55.636Z,0.90
2022-08-26T13:43:21.882Z,1.10
2022-08-26T13:45:49.351Z,0.73
2022-08-26T13:48:19.250Z,0.90
2022-08-26T13:50:48.219Z,1.10
2022-08-26T13:53:15.061Z,0.70
2022-08-26T13:55:41.842Z,0.90
2022-08-26T13:58:08.261Z,0.75
2022-08-26T14:00:37.285Z,0.82
2022-08-26T14:03:03.811Z,0.80
2022-08-26T14:05:30.169Z,0.60
2022-08-26T14:07:59.742Z,1.00
2022-08-26T14:10:26.245Z,1.03
2022-08-26T14:12:53.033Z,1.00
2022-08-26T14:15:19.419Z,0.80
2022-08-26T14:17:46.847Z,0.70
2022-08-26T14:20:14.560Z,1.20
2022-08-26T14:22:57.397Z,0.80
2022-08-26T14:25:29.217Z,0.70
2022-08-26T14:27:56.696Z,0.80
2022-08-26T14:30:23.222Z,0.90
2022-08-26T14:32:51.000Z,0.88
2022-08-26T14:35:19.500Z,0.90
2022-08-26T14:37:45.846Z,0.80
2022-08-26T14:40:14.177Z,0.90
2022-08-26T14:42:41.374Z,0.82
2022-08-26T14:45:09.543Z,0.70
2022-08-26T14:47:35.792Z,0.80
2022-08-26T14:50:02.080Z,1.40
2022-08-26T14:52:28.425Z,1.30
2022-08-26T14:54:55.083Z,1.00
2022-08-26T14:57:21.732Z,1.10
2022-08-26T14:59:50.336Z,0.77
2022-08-26T15:02:32.713Z,0.80
2022-08-26T15:04:59.995Z,1.02
2022-08-26T15:07:26.266Z,0.85
2022-08-26T15:09:53.015Z,0.90
2022-08-26T15:12:19.304Z,0.88
2022-08-26T15:14:45.580Z,0.65
2022-08-26T15:17:11.840Z,1.10
2022-08-26T15:19:38.868Z,0.85
2022-08-26T15:22:05.498Z,1.30
2022-08-26T15:24:31.906Z,1.00
2022-08-26T15:26:58.179Z,1.05
2022-08-26T15:29:24.465Z,1.35
2022-08-26T15:31:50.957Z,1.20
2022-08-26T15:34:17.406Z,1.15
2022-08-26T15:36:45.591Z,1.30
2022-08-26T15:39:12.350Z,1.10
2022-08-26T15:41:38.999Z,1.20
2022-08-26T15:44:06.177Z,1.15
2022-08-26T15:46:33.605Z,1.10
2022-08-26T15:49:00.203Z,1.00
2022-08-26T15:51:31.875Z,1.20
2022-08-26T15:53:58.821Z,1.15
2022-08-26T15:56:29.609Z,1.10
2022-08-26T15:58:56.177Z,1.25
2022-08-26T16:01:27.582Z,1.05
2022-08-26T16:03:54.684Z,1.00
2022-08-26T16:06:22.169Z,1.10
2022-08-26T16:08:49.863Z,1.20
2022-08-26T16:11:18.571Z,1.05
2022-08-26T16:13:44.859Z,0.90
2022-08-26T16:16:11.818Z,1.02
2022-08-26T16:18:38.724Z,1.00
2022-08-26T16:21:13.242Z,1.17
2022-08-26T16:23:40.470Z,1.30
2022-08-26T16:26:14.019Z,1.17
2022-08-26T16:28:40.282Z,1.00
2022-08-26T16:31:07.265Z,1.10
2022-08-26T16:33:33.539Z,1.13
2022-08-26T16:35:59.854Z,1.15
2022-08-26T16:38:26.119Z,1.15
2022-08-26T16:40:52.402Z,1.10
2022-08-26T16:43:18.709Z,1.17
2022-08-26T16:45:44.967Z,1.38
2022-08-26T16:48:11.443Z,1.48
2022-08-26T16:50:38.147Z,1.00
2022-08-26T16:53:04.601Z,1.17
2022-08-26T16:55:31.766Z,1.55
2022-08-26T16:57:58.056Z,1.48
2022-08-26T17:00:27.839Z,1.25
2022-08-26T17:02:54.947Z,1.15
2022-08-26T17:05:21.519Z,1.73
2022-08-26T17:07:47.770Z,1.40
2022-08-26T17:10:14.110Z,1.20
2022-08-26T17:12:40.396Z,0.90
2022-08-26T17:15:07.463Z,1.40
2022-08-26T17:17:34.593Z,1.48
2022-08-26T17:20:04.882Z,1.20
2022-08-26T17:22:34.532Z,1.40
2022-08-26T17:25:01.077Z,1.00
2022-08-26T17:27:27.323Z,1.20
2022-08-26T17:29:53.617Z,1.35
2022-08-26T17:32:19.895Z,1.38
2022-08-26T17:34:46.216Z,1.23
2022-08-26T17:37:12.575Z,0.93
2022-08-26T17:39:42.507Z,1.10
2022-08-26T17:42:09.312Z,1.20
2022-08-26T17:44:35.584Z,1.60
2022-08-26T17:47:01.852Z,1.10
2022-08-26T17:49:28.158Z,1.27
2022-08-26T17:51:56.921Z,1.30
2022-08-26T17:54:23.306Z,1.23
2022-08-26T17:56:49.740Z,1.23
2022-08-26T17:59:16.384Z,0.90
2022-08-26T18:01:43.188Z,1.00
2022-08-26T18:04:10.258Z,1.05
2022-08-26T18:06:36.781Z,1.27
2022-08-26T18:09:03.216Z,1.48
2022-08-26T18:11:29.873Z,1.13
2022-08-26T18:13:56.202Z,1.13
2022-08-26T18:16:22.459Z,1.40
2022-08-26T18:18:51.701Z,1.20
2022-08-26T18:21:19.135Z,1.17
2022-08-26T18:23:46.020Z,1.15
2022-08-26T18:26:19.936Z,1.95
2022-08-26T18:28:46.228Z,1.50
2022-08-26T18:31:12.593Z,1.25
2022-08-26T18:33:38.914Z,1.02
2022-08-26T18:36:05.220Z,1.58
2022-08-26T18:38:31.502Z,1.38
2022-08-26T18:40:59.203Z,1.15
2022-08-26T18:43:25.447Z,1.20
2022-08-26T18:46:00.397Z,1.55
2022-08-26T18:48:26.706Z,1.30
2022-08-26T18:50:55.126Z,1.17
2022-08-26T18:53:21.623Z,1.52
2022-08-26T18:55:47.996Z,1.77
2022-08-26T18:58:16.321Z,1.42
2022-08-26T19:00:42.602Z,1.58
2022-08-26T19:03:18.750Z,2.00
2022-08-26T19:05:45.956Z,2.03
2022-08-26T19:08:12.236Z,1.70
2022-08-26T19:10:39.170Z,1.35
2022-08-26T19:13:06.706Z,1.50
2022-08-26T19:15:36.987Z,1.58
2022-08-26T19:18:03.330Z,1.67
2022-08-26T19:20:29.699Z,1.90
2022-08-26T19:22:59.687Z,1.77
2022-08-26T19:25:28.892Z,1.70
2022-08-26T19:27:55.143Z,1.95
2022-08-26T19:30:21.459Z,1.90
2022-08-26T19:32:47.801Z,1.70
2022-08-26T19:35:14.856Z,1.70
2022-08-26T19:37:41.182Z,2.00
2022-08-26T19:40:07.740Z,1.90
2022-08-26T19:42:34.183Z,1.70
2022-08-26T19:45:24.432Z,1.50
2022-08-26T19:47:52.831Z,1.60
2022-08-26T19:50:19.305Z,1.80
2022-08-26T19:52:45.631Z,1.25
2022-08-26T19:55:12.578Z,1.33
2022-08-26T19:57:40.050Z,1.58
2022-08-26T20:00:09.987Z,1.42
2022-08-26T20:02:36.567Z,1.60
2022-08-26T20:05:04.114Z,1.38
2022-08-26T20:07:30.507Z,1.50
2022-08-26T20:09:57.108Z,1.40
2022-08-26T20:12:24.747Z,1.63
2022-08-26T20:14:51.022Z,1.73
2022-08-26T20:17:17.288Z,1.58
2022-08-26T20:20:02.277Z,1.95
2022-08-26T20:22:28.800Z,1.75
2022-08-26T20:24:55.340Z,1.63
2022-08-26T20:27:27.707Z,1.52
2022-08-26T20:30:05.208Z,1.50
2022-08-26T20:32:35.074Z,1.38
2022-08-26T20:35:01.995Z,1.60
2022-08-26T20:37:29.185Z,1.98
2022-08-26T20:39:55.789Z,1.73
2022-08-26T20:42:22.134Z,1.60
2022-08-26T20:44:54.849Z,1.50
2022-08-26T20:47:21.415Z,1.40
2022-08-26T20:49:47.716Z,2.00
2022-08-26T20:52:20.791Z,1.83
2022-08-26T20:54:47.051Z,1.85
2022-08-26T20:57:14.471Z,2.00
2022-08-26T20:59:40.816Z,1.80
2022-08-26T21:02:07.488Z,2.10
2022-08-26T21:04:34.460Z,1.83
2022-08-26T21:07:00.742Z,1.92
2022-08-26T21:09:27.313Z,1.77
2022-08-26T21:11:55.197Z,1.63
2022-08-26T21:14:23.106Z,1.90
2022-08-26T21:16:52.123Z,1.60
2022-08-26T21:19:18.749Z,1.92
2022-08-26T21:21:45.960Z,1.80
2022-08-26T21:24:12.990Z,1.90
2022-08-26T21:26:39.315Z,1.55
2022-08-26T21:29:07.697Z,1.60
2022-08-26T21:31:34.893Z,2.00
2022-08-26T21:34:01.202Z,1.60
2022-08-26T21:36:27.650Z,1.40
2022-08-26T21:38:58.001Z,1.52
2022-08-26T21:41:24.860Z,1.70
2022-08-26T21:43:51.756Z,1.85
2022-08-26T21:46:19.295Z,2.00
2022-08-26T21:48:54.198Z,1.70
2022-08-26T21:51:21.720Z,1.58
2022-08-26T21:53:48.202Z,1.70
2022-08-26T21:56:15.653Z,1.70
2022-08-26T21:58:42.019Z,1.83
2022-08-26T22:01:09.863Z,1.70
2022-08-26T22:03:47.315Z,1.85
2022-08-26T22:06:14.964Z,1.50
2022-08-26T22:08:41.216Z,2.00
2022-08-26T22:11:09.274Z,2.00
2022-08-26T22:13:37.808Z,2.22
2022-08-26T22:16:04.889Z,1.52
2022-08-26T22:18:31.613Z,1.55
2022-08-26T22:20:59.361Z,1.90
2022-08-26T22:23:25.884Z,1.45
2022-08-26T22:25:52.271Z,1.52
2022-08-26T22:28:18.562Z,1.73
2022-08-26T22:30:45.214Z,2.05
2022-08-26T22:33:11.527Z,1.83
2022-08-26T22:35:38.788Z,1.80
2022-08-26T22:38:05.040Z,2.20
2022-08-26T22:40:31.379Z,1.88
2022-08-26T22:43:00.092Z,2.03
2022-08-26T22:45:27.272Z,1.90
2022-08-26T22:47:53.630Z,2.20
2022-08-26T22:50:19.890Z,1.63
2022-08-26T22:52:46.142Z,1.80
2022-08-26T22:55:12.443Z,1.90
2022-08-26T22:57:38.968Z,1.70
2022-08-26T23:00:05.792Z,1.80
2022-08-26T23:02:32.263Z,1.85
2022-08-26T23:04:58.525Z,1.75
2022-08-26T23:07:24.787Z,1.77
2022-08-26T23:09:51.035Z,2.13
2022-08-26T23:12:17.343Z,1.80
2022-08-26T23:14:43.885Z,1.75
2022-08-26T23:17:11.523Z,1.67
2022-08-26T23:19:37.812Z,1.63
2022-08-26T23:22:04.159Z,1.85
2022-08-26T23:24:30.421Z,2.20
2022-08-26T23:26:56.700Z,2.15
2022-08-26T23:29:22.999Z,2.00
2022-08-26T23:31:49.349Z,1.95
2022-08-26T23:34:34.216Z,1.90
2022-08-26T23:37:01.012Z,2.20
2022-08-26T23:39:27.367Z,2.10
2022-08-26T23:41:53.671Z,2.35
2022-08-26T23:44:20.675Z,1.67
2022-08-26T23:46:46.939Z,1.70
2022-08-26T23:49:13.382Z,1.77
2022-08-26T23:51:58.311Z,1.85
2022-08-26T23:54:24.676Z,1.85
2022-08-26T23:56:50.982Z,1.73
2022-08-26T23:59:17.253Z,1.85
